^^
Meteo Knjazevac Station Historical Data
Daily Summary for September 24, 2022 Units:  English    Metric   Both
Daily Weekly Monthly Yearly Custom
  High: Low: Average:
Temperature: 70.5 °F 34.3 °F 51.7 °F
Dew Point: 51.3 °F 34.1 °F 42.9 °F
Humidity: 99% 44% 77%
Wind Speed: 14.3mph 0.8mph 5.6mph
Wind Gust: 18mph - -
Wind- - WSW
Pressure: 30.19 in 30.10 in -
Precipitation: 0.00 in    
Historical Graphs
 
 
Tabular Data for September 24, 2022
Time Temperature Dew Point Pressure Wind Wind Speed Wind Gust Humidity Rainfall Rate (Hourly) solar Conditions
00:04 39.8 °F 39.6 °F 30.18 in WNW 0.8 mph 2 mph 99% 0.00 in 0 W/m2
00:09 39.6 °F 39.4 °F 30.18 in WNW 2.2 mph 2 mph 99% 0.00 in 0 W/m2
00:14 39.3 °F 39 °F 30.18 in West 3 mph 3 mph 99% 0.00 in 0 W/m2
00:19 39.1 °F 38.8 °F 30.18 in West 3.7 mph 5 mph 99% 0.00 in 0 W/m2
00:24 39 °F 38.8 °F 30.18 in West 4.1 mph 5 mph 99% 0.00 in 0 W/m2
00:29 39 °F 38.8 °F 30.18 in West 4.1 mph 5 mph 99% 0.00 in 0 W/m2
00:34 38.8 °F 38.6 °F 30.18 in West 2.7 mph 5 mph 99% 0.00 in 0 W/m2
00:39 38.8 °F 38.5 °F 30.18 in West 2.3 mph 3 mph 99% 0.00 in 0 W/m2
00:44 38.7 °F 38.4 °F 30.18 in WNW 2.3 mph 2 mph 99% 0.00 in 0 W/m2
00:49 38.5 °F 38.2 °F 30.18 in WNW 2.4 mph 3 mph 99% 0.00 in 0 W/m2
00:54 38.4 °F 38.1 °F 30.18 in WNW 3.4 mph 3 mph 99% 0.00 in 0 W/m2
00:59 38.3 °F 38 °F 30.18 in West 3.3 mph 3 mph 99% 0.00 in 0 W/m2
01:04 38.1 °F 37.9 °F 30.18 in West 3.3 mph 4 mph 99% 0.00 in 0 W/m2
01:09 38.1 °F 37.9 °F 30.18 in West 3.4 mph 4 mph 99% 0.00 in 0 W/m2
01:14 37.9 °F 37.7 °F 30.18 in West 2.4 mph 3 mph 99% 0.00 in 0 W/m2
01:19 37.9 °F 37.7 °F 30.18 in West 2.7 mph 3 mph 99% 0.00 in 0 W/m2
01:24 37.9 °F 37.7 °F 30.18 in WNW 3 mph 3.4 mph 99% 0.00 in 0 W/m2
01:29 37.9 °F 37.7 °F 30.18 in WNW 3 mph 4 mph 99% 0.00 in 0 W/m2
01:34 37.9 °F 37.6 °F 30.18 in WNW 3.2 mph 4 mph 99% 0.00 in 0 W/m2
01:39 37.8 °F 37.5 °F 30.18 in West 2.5 mph 4 mph 99% 0.00 in 0 W/m2
01:44 37.8 °F 37.5 °F 30.18 in West 3.3 mph 3.1 mph 99% 0.00 in 0 W/m2
01:49 37.7 °F 37.4 °F 30.18 in WNW 2.7 mph 4 mph 99% 0.00 in 0 W/m2
01:54 37.7 °F 37.4 °F 30.18 in WNW 3.2 mph 3 mph 99% 0.00 in 0 W/m2
01:59 37.6 °F 37.3 °F 30.18 in West 2.8 mph 4 mph 99% 0.00 in 0 W/m2
02:04 37.6 °F 37.3 °F 30.18 in WNW 1.9 mph 4 mph 99% 0.00 in 0 W/m2
02:09 37.5 °F 37.2 °F 30.17 in WNW 3.1 mph 3 mph 99% 0.00 in 0 W/m2
02:14 37.4 °F 37.1 °F 30.17 in West 3.2 mph 3 mph 99% 0.00 in 0 W/m2
02:19 37.2 °F 37 °F 30.17 in WNW 3.3 mph 4 mph 99% 0.00 in 0 W/m2
02:24 37.2 °F 37 °F 30.17 in West 2.9 mph 4 mph 99% 0.00 in 0 W/m2
02:29 37 °F 36.8 °F 30.17 in WNW 3.4 mph 3 mph 99% 0.00 in 0 W/m2
02:34 37 °F 36.8 °F 30.17 in WNW 3.5 mph 3.1 mph 99% 0.00 in 0 W/m2
02:39 36.9 °F 36.6 °F 30.17 in WNW 3.4 mph 4 mph 99% 0.00 in 0 W/m2
02:44 36.9 °F 36.6 °F 30.17 in WNW 3.2 mph 4 mph 99% 0.00 in 0 W/m2
02:49 36.9 °F 36.6 °F 30.17 in WNW 2.6 mph 4 mph 99% 0.00 in 0 W/m2
02:54 36.9 °F 36.6 °F 30.17 in WNW 3.4 mph 3 mph 99% 0.00 in 0 W/m2
02:59 36.7 °F 36.4 °F 30.17 in West 3.2 mph 4 mph 99% 0.00 in 0 W/m2
03:04 36.6 °F 36.3 °F 30.17 in West 2.6 mph 4 mph 99% 0.00 in 0 W/m2
03:09 36.4 °F 36.1 °F 30.17 in West 3.4 mph 3.4 mph 99% 0.00 in 0 W/m2
03:14 36.3 °F 36.1 °F 30.17 in West 4.2 mph 5 mph 99% 0.00 in 0 W/m2
03:19 36.3 °F 36.1 °F 30.17 in West 3.5 mph 5 mph 99% 0.00 in 0 W/m2
03:24 36.2 °F 36 °F 30.16 in West 3.4 mph 3.1 mph 99% 0.00 in 0 W/m2
03:29 36.3 °F 36.1 °F 30.16 in WNW 3.7 mph 4 mph 99% 0.00 in 0 W/m2
03:34 36.3 °F 36.1 °F 30.16 in WNW 2.6 mph 4 mph 99% 0.00 in 0 W/m2
03:39 36.3 °F 36.1 °F 30.17 in WNW 3.3 mph 4 mph 99% 0.00 in 0 W/m2
03:44 36.3 °F 36.1 °F 30.17 in West 3.4 mph 4 mph 99% 0.00 in 0 W/m2
03:49 36.1 °F 35.9 °F 30.17 in West 3.2 mph 4 mph 99% 0.00 in 0 W/m2
03:54 36 °F 35.7 °F 30.17 in West 3.3 mph 4 mph 99% 0.00 in 0 W/m2
03:59 35.9 °F 35.6 °F 30.17 in West 3 mph 4 mph 99% 0.00 in 0 W/m2
04:04 35.7 °F 35.4 °F 30.17 in West 2.3 mph 3 mph 99% 0.00 in 0 W/m2
04:09 35.6 °F 35.3 °F 30.17 in West 3.7 mph 3.6 mph 99% 0.00 in 0 W/m2
04:14 35.5 °F 35.3 °F 30.17 in West 3.9 mph 3.6 mph 99% 0.00 in 0 W/m2
04:19 35.4 °F 35.2 °F 30.17 in West 4 mph 5 mph 99% 0.00 in 0 W/m2
04:24 35.6 °F 35.3 °F 30.17 in WNW 3.4 mph 5 mph 99% 0.00 in 0 W/m2
04:29 35.6 °F 35.3 °F 30.17 in WNW 3.2 mph 4 mph 99% 0.00 in 0 W/m2
04:34 35.6 °F 35.3 °F 30.17 in WNW 3.4 mph 4 mph 99% 0.00 in 0 W/m2
04:39 35.5 °F 35.3 °F 30.17 in WNW 4 mph 5 mph 99% 0.00 in 0 W/m2
04:44 35.6 °F 35.3 °F 30.17 in WNW 3.2 mph 5 mph 99% 0.00 in 0 W/m2
04:49 35.6 °F 35.3 °F 30.17 in West 3.3 mph 3 mph 99% 0.00 in 0 W/m2
04:54 35.4 °F 35.2 °F 30.17 in West 3.2 mph 3.1 mph 99% 0.00 in 0 W/m2
04:59 35.3 °F 35.1 °F 30.17 in WNW 3.2 mph 4 mph 99% 0.00 in 0 W/m2
05:04 35.2 °F 35 °F 30.17 in WNW 3 mph 4 mph 99% 0.00 in 0 W/m2
05:09 35.2 °F 34.9 °F 30.17 in WNW 2.5 mph 3 mph 99% 0.00 in 0 W/m2
05:14 35.1 °F 34.8 °F 30.17 in WNW 3 mph 3 mph 99% 0.00 in 0 W/m2
05:19 34.9 °F 34.6 °F 30.17 in WNW 2.3 mph 3 mph 99% 0.00 in 0 W/m2
05:24 34.7 °F 34.4 °F 30.17 in WNW 2.8 mph 2.7 mph 99% 0.00 in 0 W/m2
05:29 34.7 °F 34.4 °F 30.17 in NW 3.6 mph 3.1 mph 99% 0.00 in 0 W/m2
05:34 34.8 °F 34.5 °F 30.17 in NW 2.6 mph 5 mph 99% 0.00 in 0 W/m2
05:39 34.9 °F 34.6 °F 30.17 in NW 2.9 mph 3 mph 99% 0.00 in 0 W/m2
05:44 34.9 °F 34.6 °F 30.17 in NW 2.7 mph 3 mph 99% 0.00 in 0 W/m2
05:49 34.9 °F 34.6 °F 30.17 in WNW 2.9 mph 3 mph 99% 0.00 in 0 W/m2
05:54 34.9 °F 34.6 °F 30.17 in WNW 2.8 mph 4 mph 99% 0.00 in 0 W/m2
05:59 34.9 °F 34.6 °F 30.18 in WNW 2.8 mph 3 mph 99% 0.00 in 0 W/m2
06:04 34.9 °F 34.6 °F 30.18 in NW 3.8 mph 5 mph 99% 0.00 in 0 W/m2
06:09 34.9 °F 34.6 °F 30.17 in NW 3.5 mph 5 mph 99% 0.00 in 0 W/m2
06:14 34.9 °F 34.6 °F 30.18 in WNW 3.8 mph 5 mph 99% 0.00 in 2 W/m2
06:19 34.9 °F 34.6 °F 30.18 in WNW 3.4 mph 5 mph 99% 0.00 in 4 W/m2
06:24 34.9 °F 34.6 °F 30.18 in West 3.4 mph 4 mph 99% 0.00 in 6 W/m2
06:29 34.7 °F 34.4 °F 30.18 in West 3.7 mph 4 mph 99% 0.00 in 10 W/m2
06:34 34.5 °F 34.3 °F 30.18 in WNW 3.8 mph 5 mph 99% 0.00 in 13 W/m2
06:39 34.5 °F 34.3 °F 30.18 in NW 2.7 mph 4 mph 99% 0.00 in 18 W/m2
06:44 34.4 °F 34.2 °F 30.18 in NW 2.7 mph 4 mph 99% 0.00 in 22 W/m2
06:49 34.3 °F 34.1 °F 30.18 in WNW 2.8 mph 4 mph 99% 0.00 in 26 W/m2
06:54 34.3 °F 34.1 °F 30.18 in WNW 2.9 mph 3 mph 99% 0.00 in 30 W/m2
06:59 34.4 °F 34.2 °F 30.18 in West 3.4 mph 4 mph 99% 0.00 in 34 W/m2
07:04 34.5 °F 34.3 °F 30.18 in West 3.3 mph 3.6 mph 99% 0.00 in 37 W/m2
07:09 34.5 °F 34.3 °F 30.18 in West 4.5 mph 5 mph 99% 0.00 in 41 W/m2
07:14 34.7 °F 34.4 °F 30.18 in West 3.3 mph 6 mph 99% 0.00 in 85 W/m2
07:19 34.9 °F 34.6 °F 30.18 in WNW 3.6 mph 4 mph 99% 0.00 in 102 W/m2
07:24 35 °F 34.7 °F 30.18 in WNW 3.1 mph 5 mph 99% 0.00 in 116 W/m2
07:29 35.2 °F 34.9 °F 30.18 in WNW 4.1 mph 3.8 mph 99% 0.00 in 133 W/m2
07:34 35.4 °F 35.2 °F 30.18 in WNW 3.7 mph 5 mph 99% 0.00 in 148 W/m2
07:39 35.8 °F 35.5 °F 30.18 in WNW 3.2 mph 5 mph 99% 0.00 in 158 W/m2
07:44 36.1 °F 35.8 °F 30.18 in WNW 3 mph 3 mph 99% 0.00 in 177 W/m2
07:49 36.4 °F 36.1 °F 30.18 in WNW 2.5 mph 3 mph 99% 0.00 in 191 W/m2
07:54 36.7 °F 36.4 °F 30.18 in WNW 3 mph 3 mph 99% 0.00 in 205 W/m2
07:59 37.1 °F 36.9 °F 30.18 in West 3.3 mph 3 mph 99% 0.00 in 220 W/m2
08:04 37.6 °F 37.3 °F 30.18 in West 2.3 mph 3 mph 99% 0.00 in 231 W/m2
08:09 38 °F 37.7 °F 30.18 in WNW 2.6 mph 2.2 mph 99% 0.00 in 248 W/m2
08:14 38.6 °F 38.3 °F 30.18 in NW 2.8 mph 3 mph 99% 0.00 in 263 W/m2
08:19 39.3 °F 39 °F 30.18 in WNW 3.3 mph 4 mph 99% 0.00 in 280 W/m2
08:24 40.5 °F 40.2 °F 30.18 in WNW 2.7 mph 5 mph 99% 0.00 in 288 W/m2
08:29 42 °F 41.7 °F 30.18 in WNW 2.9 mph 3.4 mph 99% 0.00 in 310 W/m2
08:34 43.8 °F 43.5 °F 30.18 in WNW 1.8 mph 1.3 mph 99% 0.00 in 327 W/m2
08:39 45.4 °F 45.2 °F 30.18 in WNW 3.2 mph 2.9 mph 99% 0.00 in 341 W/m2
08:44 46.2 °F 46 °F 30.18 in WNW 2.7 mph 4 mph 99% 0.00 in 357 W/m2
08:49 47 °F 46.6 °F 30.18 in West 2.1 mph 3 mph 98.6% 0.00 in 369 W/m2
08:54 48.2 °F 47 °F 30.19 in WSW 1.6 mph 3 mph 95.8% 0.00 in 385 W/m2
08:59 49.4 °F 47.7 °F 30.19 in West 1.7 mph 2 mph 93.7% 0.00 in 398 W/m2
09:04 50.6 °F 47.8 °F 30.19 in NW 3.2 mph 2.5 mph 90.1% 0.00 in 414 W/m2
09:09 51.3 °F 48.6 °F 30.19 in ESE 3.6 mph 4 mph 90.2% 0.00 in 429 W/m2
09:14 52.3 °F 48.4 °F 30.19 in ESE 4.1 mph 5 mph 86.7% 0.00 in 446 W/m2
09:19 52.8 °F 48.4 °F 30.19 in ESE 4.4 mph 5 mph 84.8% 0.00 in 460 W/m2
09:24 53.8 °F 49 °F 30.19 in ESE 3.3 mph 5 mph 83.8% 0.00 in 473 W/m2
09:29 54.7 °F 48.7 °F 30.19 in SE 4.4 mph 5 mph 80.1% 0.00 in 483 W/m2
09:34 55 °F 48.5 °F 30.19 in SE 3.8 mph 5 mph 78.8% 0.00 in 499 W/m2
09:39 55.6 °F 49.1 °F 30.19 in SE 4.6 mph 5 mph 78.6% 0.00 in 510 W/m2
09:44 56.2 °F 49.1 °F 30.19 in SSE 4.7 mph 6 mph 77.1% 0.00 in 520 W/m2
09:49 57 °F 50 °F 30.18 in South 4.2 mph 5 mph 77.4% 0.00 in 532 W/m2
09:54 57.7 °F 50.2 °F 30.18 in SSW 3.8 mph 5 mph 76% 0.00 in 543 W/m2
09:59 58.2 °F 50 °F 30.18 in SSW 3.5 mph 5 mph 74.3% 0.00 in 553 W/m2
10:04 58 °F 49.5 °F 30.18 in SE 3.2 mph 3 mph 73.4% 0.00 in 567 W/m2
10:09 58.4 °F 50 °F 30.18 in SE 2 mph 4 mph 73.6% 0.00 in 575 W/m2
10:14 59.4 °F 51 °F 30.18 in SW 2.7 mph 2 mph 73.9% 0.00 in 575 W/m2
10:19 60.2 °F 51.3 °F 30.18 in WSW 3 mph 3 mph 72.6% 0.00 in 438 W/m2
10:24 60.5 °F 50.7 °F 30.18 in SW 5.3 mph 6 mph 70% 0.00 in 87 W/m2
10:29 60.5 °F 50.4 °F 30.17 in SSE 5.6 mph 7 mph 69.3% 0.00 in 87 W/m2
10:34 61.2 °F 50.8 °F 30.18 in South 7.7 mph 8 mph 68.6% 0.00 in 149 W/m2
10:38 61.8 °F 50.1 °F 30.17 in SSW 11.7 mph 13 mph 65.5% 0.00 in 539 W/m2
10:44 62.1 °F 49.6 °F 30.17 in SW 13.5 mph 15 mph 63.8% 0.00 in 639 W/m2
10:49 62.4 °F 49.7 °F 30.17 in SW 11 mph 15 mph 63% 0.00 in 655 W/m2
10:54 63.1 °F 50 °F 30.17 in SW 12.2 mph 8 mph 62.3% 0.00 in 664 W/m2
10:59 63.1 °F 49.6 °F 30.17 in SW 12.6 mph 14 mph 61.3% 0.00 in 673 W/m2
11:04 63.4 °F 49.5 °F 30.17 in SW 12.7 mph 9.6 mph 60.5% 0.00 in 678 W/m2
11:09 63.6 °F 49.6 °F 30.16 in SW 11.5 mph 13 mph 60.3% 0.00 in 687 W/m2
11:14 63.9 °F 49.6 °F 30.16 in SW 12.1 mph 13 mph 59.8% 0.00 in 692 W/m2
11:19 64.2 °F 49.7 °F 30.16 in SW 9.7 mph 14 mph 59.3% 0.00 in 697 W/m2
11:24 64.7 °F 50.1 °F 30.16 in SW 10.3 mph 12 mph 59.2% 0.00 in 704 W/m2
11:29 64.8 °F 49.9 °F 30.16 in SW 12.4 mph 8.7 mph 58.5% 0.00 in 709 W/m2
11:34 65.3 °F 50 °F 30.16 in WSW 11 mph 14 mph 57.8% 0.00 in 715 W/m2
11:39 65.5 °F 50.1 °F 30.16 in WSW 11.6 mph 8.7 mph 57.7% 0.00 in 720 W/m2
11:44 65.7 °F 50.4 °F 30.16 in WSW 9.4 mph 12 mph 57.8% 0.00 in 714 W/m2
11:49 66.1 °F 50.8 °F 30.16 in SW 9.4 mph 6.9 mph 57.7% 0.00 in 731 W/m2
11:53 66.5 °F 50.2 °F 30.16 in SW 8.2 mph 10 mph 55.9% 0.00 in 732 W/m2
11:59 66.9 °F 50.1 °F 30.16 in SW 9.6 mph 6.7 mph 54.8% 0.00 in 737 W/m2
12:04 66.7 °F 49.2 °F 30.16 in SSW 10.9 mph 12 mph 53.4% 0.00 in 743 W/m2
12:09 66.8 °F 49.5 °F 30.16 in SW 10.4 mph 12 mph 53.7% 0.00 in 744 W/m2
12:14 67.1 °F 49.6 °F 30.16 in SW 11 mph 12 mph 53.5% 0.00 in 757 W/m2
12:19 67.3 °F 49.3 °F 30.16 in SW 10.8 mph 13 mph 52.6% 0.00 in 758 W/m2
12:24 67.5 °F 50 °F 30.15 in SW 7.8 mph 4.9 mph 53.5% 0.00 in 733 W/m2
12:29 67.7 °F 49.8 °F 30.15 in SW 5.8 mph 5.6 mph 52.6% 0.00 in 783 W/m2
12:34 68 °F 49.7 °F 30.15 in SW 9.7 mph 7.6 mph 52% 0.00 in 779 W/m2
12:38 68.1 °F 50.1 °F 30.15 in SW 8.9 mph 11 mph 52.5% 0.00 in 715 W/m2
12:44 68.1 °F 49.4 °F 30.14 in SW 9.7 mph 14 mph 51.1% 0.00 in 726 W/m2
12:49 68.1 °F 48.9 °F 30.14 in SSW 10.9 mph 10.1 mph 50.3% 0.00 in 721 W/m2
12:52 68 °F 48.6 °F 30.14 in SW 11.9 mph 14 mph 49.8% 0.00 in 735 W/m2
12:59 68 °F 48.8 °F 30.14 in SSW 10.5 mph 12 mph 50.2% 0.00 in 781 W/m2
13:04 68.4 °F 49 °F 30.14 in SSW 10.4 mph 12 mph 50% 0.00 in 797 W/m2
13:09 68.8 °F 49.6 °F 30.14 in SSW 8.4 mph 13 mph 50.4% 0.00 in 767 W/m2
13:14 69.1 °F 49.5 °F 30.14 in SW 10 mph 9 mph 49.6% 0.00 in 748 W/m2
13:19 69.2 °F 49.2 °F 30.14 in SW 8.2 mph 10 mph 49.2% 0.00 in 785 W/m2
13:24 69.4 °F 49.2 °F 30.14 in SW 7.9 mph 11 mph 48.6% 0.00 in 778 W/m2
13:29 69.3 °F 48.8 °F 30.14 in SW 10.4 mph 9.4 mph 48.1% 0.00 in 764 W/m2
13:34 69.5 °F 49 °F 30.14 in SW 10.2 mph 13 mph 48% 0.00 in 758 W/m2
13:39 69.7 °F 48.2 °F 30.14 in SW 10.3 mph 12 mph 46.3% 0.00 in 757 W/m2
13:44 69.6 °F 47.7 °F 30.14 in SW 12.1 mph 14 mph 45.7% 0.00 in 748 W/m2
13:49 69.7 °F 48 °F 30.13 in SW 14.3 mph 14 mph 45.9% 0.00 in 743 W/m2
13:54 69.6 °F 47.3 °F 30.13 in SW 10.7 mph 18 mph 45% 0.00 in 476 W/m2
13:59 69.1 °F 48 °F 30.13 in SW 7 mph 13 mph 47% 0.00 in 342 W/m2
14:04 68.8 °F 47.7 °F 30.13 in SW 11 mph 9 mph 47% 0.00 in 654 W/m2
14:09 68.8 °F 47 °F 30.13 in SW 10.9 mph 14 mph 45.7% 0.00 in 625 W/m2
14:14 69 °F 48.1 °F 30.13 in SW 6.6 mph 11 mph 47.2% 0.00 in 592 W/m2
14:19 69.4 °F 48.1 °F 30.13 in SW 11.8 mph 9.6 mph 46.7% 0.00 in 584 W/m2
14:24 69.3 °F 47 °F 30.13 in SW 9.8 mph 14 mph 45% 0.00 in 502 W/m2
14:29 69.3 °F 47.7 °F 30.12 in SW 9.7 mph 12 mph 46.1% 0.00 in 463 W/m2
14:34 69 °F 47 °F 30.12 in SW 9.9 mph 12 mph 45.4% 0.00 in 542 W/m2
14:39 69.2 °F 48.2 °F 30.12 in SW 6.4 mph 11 mph 47.2% 0.00 in 566 W/m2
14:44 69.5 °F 48.4 °F 30.12 in SW 7.9 mph 7 mph 47% 0.00 in 605 W/m2
14:49 69.7 °F 48.6 °F 30.12 in SSW 7.4 mph 9 mph 46.9% 0.00 in 589 W/m2
14:54 70.2 °F 49.1 °F 30.12 in SSW 9.5 mph 10.7 mph 47.3% 0.00 in 571 W/m2
14:59 70.3 °F 48.6 °F 30.12 in SSW 9.8 mph 14 mph 46% 0.00 in 574 W/m2
15:04 70.3 °F 47.8 °F 30.12 in SW 11 mph 11 mph 44.8% 0.00 in 550 W/m2
15:09 70.3 °F 47.4 °F 30.12 in SW 10.7 mph 13 mph 44% 0.00 in 498 W/m2
15:14 70.2 °F 47.7 °F 30.12 in SW 7.2 mph 13 mph 44.7% 0.00 in 439 W/m2
15:19 70.3 °F 48 °F 30.12 in SW 8.7 mph 8 mph 45.2% 0.00 in 445 W/m2
15:24 70.2 °F 48 °F 30.12 in SW 7.5 mph 10 mph 45.3% 0.00 in 366 W/m2
15:29 70.2 °F 48.5 °F 30.12 in SW 8.2 mph 9 mph 46.1% 0.00 in 362 W/m2
15:34 70 °F 48.2 °F 30.11 in SW 8.2 mph 10 mph 45.8% 0.00 in 413 W/m2
15:39 70.1 °F 48.2 °F 30.11 in SW 6.6 mph 10 mph 45.7% 0.00 in 423 W/m2
15:44 70.2 °F 48.4 °F 30.11 in SSW 7.6 mph 8 mph 46% 0.00 in 379 W/m2
15:49 70.2 °F 48.4 °F 30.10 in SSW 6.1 mph 9 mph 46% 0.00 in 412 W/m2
15:54 70.4 °F 49.4 °F 30.10 in SW 4.7 mph 7 mph 47.3% 0.00 in 392 W/m2
15:59 70.3 °F 48.2 °F 30.10 in SW 7.2 mph 6 mph 45.4% 0.00 in 399 W/m2
16:04 70.2 °F 48.2 °F 30.10 in SW 9.6 mph 11 mph 45.7% 0.00 in 396 W/m2
16:09 70.3 °F 49 °F 30.10 in SW 7.2 mph 12 mph 46.8% 0.00 in 384 W/m2
16:14 70.4 °F 48.9 °F 30.10 in SSW 6.9 mph 8 mph 46.6% 0.00 in 350 W/m2
16:19 70.5 °F 49.3 °F 30.10 in SSW 6.1 mph 9 mph 47% 0.00 in 334 W/m2
16:24 70.5 °F 49.5 °F 30.10 in SSW 7.6 mph 7.8 mph 47.2% 0.00 in 308 W/m2
16:29 70.5 °F 49.3 °F 30.10 in SW 8.1 mph 12 mph 47% 0.00 in 304 W/m2
16:34 70.4 °F 48.9 °F 30.10 in SW 8.4 mph 9 mph 46.5% 0.00 in 276 W/m2
16:39 70.2 °F 48.3 °F 30.10 in SW 8.8 mph 9 mph 45.8% 0.00 in 242 W/m2
16:44 69.8 °F 48.9 °F 30.10 in SW 10.4 mph 9 mph 47.4% 0.00 in 199 W/m2
16:49 69.4 °F 48.9 °F 30.10 in SW 8.9 mph 12 mph 48% 0.00 in 194 W/m2
16:54 69.3 °F 48.7 °F 30.10 in SW 7.9 mph 10 mph 48% 0.00 in 194 W/m2
16:59 69.1 °F 48.6 °F 30.10 in SW 8.4 mph 8 mph 48% 0.00 in 186 W/m2
17:04 69.1 °F 48.7 °F 30.10 in SW 7.6 mph 10 mph 48.2% 0.00 in 177 W/m2
17:09 69 °F 48.7 °F 30.10 in SW 9.9 mph 9 mph 48.5% 0.00 in 165 W/m2
17:14 68.7 °F 48.4 °F 30.10 in SW 7.5 mph 11 mph 48.3% 0.00 in 141 W/m2
17:19 68.6 °F 48.9 °F 30.10 in SW 5.6 mph 8 mph 49.4% 0.00 in 137 W/m2
17:24 68.5 °F 48.9 °F 30.10 in SW 5.3 mph 6 mph 49.6% 0.00 in 115 W/m2
17:29 68.3 °F 48.9 °F 30.10 in SW 7.9 mph 6.9 mph 50% 0.00 in 79 W/m2
17:34 68.1 °F 49 °F 30.10 in SW 5.4 mph 9 mph 50.5% 0.00 in 88 W/m2
17:39 67.8 °F 49.5 °F 30.10 in SW 3.2 mph 6 mph 52% 0.00 in 86 W/m2
17:44 67.6 °F 49.6 °F 30.10 in SW 4.3 mph 4 mph 52.4% 0.00 in 78 W/m2
17:49 67.4 °F 49.5 °F 30.10 in SW 4 mph 5 mph 52.7% 0.00 in 59 W/m2
17:54 67.1 °F 49.4 °F 30.10 in SW 3.9 mph 5 mph 53% 0.00 in 46 W/m2
17:59 66.7 °F 49.4 °F 30.10 in SW 3.9 mph 5 mph 53.6% 0.00 in 41 W/m2
18:04 66.5 °F 49.3 °F 30.10 in SW 3.5 mph 5 mph 54% 0.00 in 30 W/m2
Knjazevac, Serbia
Compliments of Weather Underground - 4 mb